Time;durP1;ratioP1;P1;durP2;ratioP2;P2;SDS_P1;SDS_P2;PMS_P1;PMS_P2;Temp;Humidity;BMP_temperature;BMP_pressure;BME280_temperature;BME280_humidity;BME280_pressure;Samples;Min_cycle;Max_cycle;Signal;HPM_P1;HPM_P2
2023/04/01 00:05:01;;;;;;;7.80;2.00;;;;;9.20;98820.00;;;;10554269;27;20205;-82
2023/04/01 00:10:07;;;;;;;8.30;2.37;;;;;9.10;98832.00;;;;10538659;27;20200;-81
2023/04/01 00:15:11;;;;;;;9.10;2.37;;;;;9.20;98839.00;;;;10575703;27;20207;-81
2023/04/01 00:20:14;;;;;;;11.23;2.60;;;;;9.20;98840.00;;;;10578381;27;20299;-80
2023/04/01 00:25:16;;;;;;;8.97;2.13;;;;;9.20;98835.00;;;;10513656;27;20204;-81
2023/04/01 00:30:18;;;;;;;8.03;2.13;;;;;9.20;98845.00;;;;10547133;27;20195;-81
2023/04/01 00:35:20;;;;;;;4.57;1.70;;;;;9.20;98840.00;;;;10503257;28;20201;-81
2023/04/01 00:40:27;;;;;;;7.57;2.10;;;;;9.20;98841.00;;;;10536592;27;20298;-81
2023/04/01 00:45:32;;;;;;;7.77;2.83;;;;;9.20;98849.00;;;;10559444;27;20967;-81
2023/04/01 00:50:35;;;;;;;10.33;2.87;;;;;9.20;98842.00;;;;10502646;28;20231;-81
2023/04/01 00:55:40;;;;;;;5.43;2.57;;;;;9.20;98851.00;;;;10499785;28;20678;-81
2023/04/01 01:00:48;;;;;;;7.13;2.47;;;;;9.20;98855.00;;;;10515318;28;20288;-83
2023/04/01 01:06:23;;;;;;;6.13;2.00;;;;;9.20;98862.00;;;;10538720;27;20696;-83
2023/04/01 01:11:35;;;;;;;5.90;1.80;;;;;9.10;98857.00;;;;10502231;27;20192;-83
2023/04/01 01:16:50;;;;;;;5.00;1.80;;;;;9.10;98864.00;;;;10540159;27;20682;-82
2023/04/01 01:22:19;;;;;;;6.30;2.00;;;;;9.10;98861.00;;;;10524662;28;20196;-83
2023/04/01 01:27:22;;;;;;;3.47;1.53;;;;;9.10;98862.00;;;;10514182;27;20223;-83
2023/04/01 01:32:48;;;;;;;4.43;1.57;;;;;9.10;98866.00;;;;10498129;28;20189;-83
2023/04/01 01:37:56;;;;;;;6.90;1.43;;;;;9.10;98867.00;;;;10556472;27;20208;-82
2023/04/01 01:43:04;;;;;;;4.80;1.93;;;;;9.10;98860.00;;;;10506760;27;20195;-83
2023/04/01 01:48:09;;;;;;;4.17;2.00;;;;;9.10;98875.00;;;;10497775;28;20212;-83
2023/04/01 01:53:13;;;;;;;5.10;1.93;;;;;9.10;98874.00;;;;10508701;28;20705;-83
2023/04/01 01:58:24;;;;;;;6.33;2.07;;;;;9.00;98882.00;;;;10493747;28;20200;-83
2023/04/01 02:03:31;;;;;;;5.40;3.07;;;;;9.00;98891.00;;;;10536173;28;20272;-83
2023/04/01 02:08:51;;;;;;;4.87;2.80;;;;;9.00;98904.00;;;;10555450;28;20224;-83
2023/04/01 02:13:58;;;;;;;5.83;2.73;;;;;8.90;98913.00;;;;10537017;27;20202;-82
2023/04/01 02:19:07;;;;;;;7.20;2.67;;;;;8.90;98914.00;;;;10553608;27;20666;-82
2023/04/01 02:24:12;;;;;;;6.80;3.33;;;;;8.90;98913.00;;;;10473530;28;20223;-83
2023/04/01 02:29:16;;;;;;;7.70;4.13;;;;;8.80;98924.00;;;;10518728;27;20220;-84
2023/04/01 02:34:19;;;;;;;6.57;3.13;;;;;8.80;98923.00;;;;10499777;27;20196;-83
2023/04/01 02:39:22;;;;;;;8.27;2.77;;;;;8.80;98936.00;;;;10524170;27;20307;-83
2023/04/01 02:44:24;;;;;;;6.37;2.90;;;;;8.80;98930.00;;;;10532592;28;20200;-82
2023/04/01 02:49:26;;;;;;;7.87;3.17;;;;;8.80;98938.00;;;;10529851;28;20208;-82
2023/04/01 02:54:28;;;;;;;5.60;2.80;;;;;8.80;98937.00;;;;10518595;27;20916;-81
2023/04/01 02:59:30;;;;;;;5.90;2.67;;;;;8.80;98954.00;;;;10531722;27;20203;-82
2023/04/01 03:04:32;;;;;;;6.43;2.60;;;;;8.80;98949.00;;;;10521400;27;20253;-82
2023/04/01 03:09:36;;;;;;;6.87;2.87;;;;;8.80;98955.00;;;;10552762;27;20223;-83
2023/04/01 03:14:38;;;;;;;13.63;3.40;;;;;8.80;98971.00;;;;10516544;28;20263;-82
2023/04/01 03:19:41;;;;;;;9.53;3.67;;;;;8.80;98968.00;;;;10540136;27;20209;-82
2023/04/01 03:24:44;;;;;;;6.03;3.23;;;;;8.80;98978.00;;;;10518470;27;20196;-82
2023/04/01 03:29:46;;;;;;;6.53;3.53;;;;;8.80;98980.00;;;;10527147;27;20227;-81
2023/04/01 03:34:49;;;;;;;8.53;4.47;;;;;8.80;98994.00;;;;10518893;28;20249;-82
2023/04/01 03:39:51;;;;;;;16.43;5.13;;;;;8.80;99000.00;;;;10489879;28;20229;-82
2023/04/01 03:44:53;;;;;;;12.47;5.40;;;;;8.80;98997.00;;;;10523201;27;20192;-82
2023/04/01 03:49:55;;;;;;;10.27;5.70;;;;;8.80;99008.00;;;;10517122;27;20577;-82
2023/04/01 03:54:57;;;;;;;16.53;5.23;;;;;8.80;99010.00;;;;10501756;27;20218;-82
2023/04/01 03:59:59;;;;;;;13.57;6.20;;;;;8.80;99017.00;;;;10518896;27;20304;-81
2023/04/01 04:05:02;;;;;;;13.43;5.97;;;;;8.80;99013.00;;;;10502733;27;20201;-81
2023/04/01 04:10:05;;;;;;;13.37;6.37;;;;;8.80;99027.00;;;;10496248;28;20249;-81
2023/04/01 04:15:08;;;;;;;11.40;5.77;;;;;8.80;99034.00;;;;10534979;28;20659;-81
2023/04/01 04:20:11;;;;;;;14.83;7.03;;;;;8.80;99040.00;;;;10493669;27;20720;-82
2023/04/01 04:25:13;;;;;;;16.40;6.53;;;;;8.80;99040.00;;;;10492102;27;20200;-82
2023/04/01 04:30:15;;;;;;;11.97;5.80;;;;;8.80;99050.00;;;;10517520;28;20518;-82
2023/04/01 04:35:17;;;;;;;8.90;5.47;;;;;8.80;99058.00;;;;10502662;27;20201;-83
2023/04/01 04:40:20;;;;;;;9.03;4.67;;;;;8.80;99054.00;;;;10483519;28;20219;-83
2023/04/01 04:45:22;;;;;;;7.83;4.03;;;;;8.80;99057.00;;;;10549340;27;20497;-82
2023/04/01 04:50:29;;;;;;;13.27;4.77;;;;;8.80;99066.00;;;;10536969;27;20268;-83
2023/04/01 04:55:32;;;;;;;7.37;4.43;;;;;8.80;99075.00;;;;10511439;28;20699;-82
2023/04/01 05:01:12;;;;;;;11.83;3.73;;;;;8.70;99083.00;;;;10498869;28;20621;-82
2023/04/01 05:06:15;;;;;;;4.97;3.17;;;;;8.70;99096.00;;;;10538462;28;20273;-82
2023/04/01 05:11:19;;;;;;;6.07;2.80;;;;;8.70;99092.00;;;;10499682;28;20290;-82
2023/04/01 05:16:22;;;;;;;6.93;3.00;;;;;8.70;99091.00;;;;10501735;27;20239;-82
2023/04/01 05:21:24;;;;;;;3.23;2.93;;;;;8.70;99104.00;;;;10491923;27;20435;-83
2023/04/01 05:26:28;;;;;;;3.00;2.70;;;;;8.80;99112.00;;;;10511258;27;20231;-82
2023/04/01 05:31:30;;;;;;;2.47;1.83;;;;;8.80;99123.00;;;;10508479;27;20678;-82
2023/04/01 05:36:33;;;;;;;2.90;1.43;;;;;8.80;99135.00;;;;10519368;28;20196;-83
2023/04/01 05:41:36;;;;;;;2.70;1.63;;;;;8.80;99132.00;;;;10479298;28;20212;-82
2023/04/01 05:46:38;;;;;;;7.43;2.00;;;;;8.80;99143.00;;;;10511987;28;20208;-82
2023/04/01 05:51:54;;;;;;;4.60;2.80;;;;;8.80;99147.00;;;;10517463;27;20202;-83
2023/04/01 05:56:56;;;;;;;5.70;3.00;;;;;8.80;99147.00;;;;10491321;28;20651;-82
2023/04/01 06:01:58;;;;;;;4.67;3.53;;;;;8.90;99158.00;;;;10514190;28;20196;-82
2023/04/01 06:07:01;;;;;;;7.03;3.83;;;;;8.90;99165.00;;;;10500475;27;20212;-82
2023/04/01 06:12:17;;;;;;;9.73;5.00;;;;;8.90;99176.00;;;;10537196;28;20201;-83
2023/04/01 06:17:54;;;;;;;7.67;4.63;;;;;8.90;99183.00;;;;10552729;27;20188;-82
2023/04/01 06:23:20;;;;;;;9.80;5.23;;;;;8.90;99189.00;;;;10468955;28;20208;-83
2023/04/01 06:29:01;;;;;;;3.73;3.00;;;;;8.90;99200.00;;;;10505029;28;20213;-81
2023/04/01 06:34:31;;;;;;;7.40;3.23;;;;;8.90;99197.00;;;;10523762;28;20200;-82
2023/04/01 06:40:05;;;;;;;7.07;4.23;;;;;8.90;99211.00;;;;10489707;28;20473;-82
2023/04/01 06:45:27;;;;;;;8.40;4.50;;;;;8.90;99213.00;;;;10494032;28;20659;-82
2023/04/01 06:51:33;;;;;;;7.63;4.43;;;;;8.90;99225.00;;;;10450457;28;20213;-82
2023/04/01 06:57:02;;;;;;;6.30;3.90;;;;;9.00;99231.00;;;;10488728;28;20717;-82
2023/04/01 07:02:10;;;;;;;7.80;4.10;;;;;9.00;99239.00;;;;10512388;27;20196;-82
2023/04/01 07:07:29;;;;;;;6.43;4.30;;;;;9.00;99242.00;;;;10535966;27;20221;-83
2023/04/01 07:12:58;;;;;;;5.53;3.30;;;;;9.00;99250.00;;;;10524334;27;20205;-82
2023/04/01 07:18:34;;;;;;;8.33;4.10;;;;;9.20;99255.00;;;;10503118;27;20193;-82
2023/04/01 07:23:44;;;;;;;7.23;3.80;;;;;9.30;99268.00;;;;10502934;27;20699;-82
2023/04/01 07:29:18;;;;;;;10.03;7.77;;;;;9.40;99271.00;;;;10512698;28;20242;-80
2023/04/01 07:34:26;;;;;;;3.43;2.00;;;;;9.50;99277.00;;;;10514261;28;20189;-80
2023/04/01 07:39:28;;;;;;;7.10;5.70;;;;;9.60;99289.00;;;;10499494;27;20227;-80
2023/04/01 07:45:22;;;;;;;4.10;2.43;;;;;10.00;99289.00;;;;10489206;27;20204;-80
2023/04/01 07:50:31;;;;;;;1.90;1.80;;;;;9.90;99306.00;;;;10490243;28;20228;-80
2023/04/01 07:55:37;;;;;;;3.60;2.83;;;;;9.90;99310.00;;;;10499536;28;20220;-81
2023/04/01 08:01:01;;;;;;;2.10;1.90;;;;;10.10;99308.00;;;;10539674;27;20191;-82
2023/04/01 08:06:22;;;;;;;1.60;1.37;;;;;10.10;99328.00;;;;10538889;27;20207;-82
2023/04/01 08:11:57;;;;;;;4.47;1.00;;;;;10.10;99326.00;;;;10479023;27;20539;-82
2023/04/01 08:17:27;;;;;;;0.93;0.83;;;;;10.10;99339.00;;;;10508013;27;20520;-81
2023/04/01 08:22:36;;;;;;;1.10;0.80;;;;;10.30;99331.00;;;;10528091;27;20188;-82
2023/04/01 08:27:48;;;;;;;1.37;0.90;;;;;10.30;99343.00;;;;10529226;27;20235;-82
2023/04/01 08:32:58;;;;;;;1.80;1.23;;;;;10.10;99358.00;;;;10496551;28;20199;-82
2023/04/01 08:38:11;;;;;;;2.20;0.87;;;;;10.20;99361.00;;;;10524657;27;20750;-82
2023/04/01 08:43:39;;;;;;;0.70;0.63;;;;;10.40;99346.00;;;;10508391;27;20769;-83
2023/04/01 08:49:08;;;;;;;1.50;0.70;;;;;10.30;99371.00;;;;10481389;27;20265;-82
2023/04/01 08:54:30;;;;;;;1.60;0.90;;;;;10.20;99377.00;;;;10534404;27;20204;-81
2023/04/01 09:00:03;;;;;;;1.63;1.10;;;;;10.50;99388.00;;;;10528220;28;20220;-82
2023/04/01 09:05:47;;;;;;;3.30;1.30;;;;;10.80;99389.00;;;;10496785;28;20204;-83
2023/04/01 09:10:56;;;;;;;1.63;1.10;;;;;10.90;99382.00;;;;10490366;28;20212;-82
2023/04/01 09:16:52;;;;;;;1.00;1.00;;;;;11.00;99403.00;;;;10428691;28;20223;-81
2023/04/01 09:22:09;;;;;;;3.00;2.80;;;;;10.80;99408.00;;;;10521785;28;20799;-82
2023/04/01 09:27:50;;;;;;;1.40;1.00;;;;;10.90;99402.00;;;;10515907;28;20273;-81
2023/04/01 09:32:55;;;;;;;4.17;1.17;;;;;11.00;99412.00;;;;10423869;28;20305;-83
2023/04/01 09:38:27;;;;;;;1.37;1.27;;;;;11.00;99420.00;;;;10518172;28;20216;-81
2023/04/01 09:43:48;;;;;;;2.33;2.00;;;;;11.00;99423.00;;;;10509526;27;20196;-80
2023/04/01 09:49:25;;;;;;;1.83;1.67;;;;;10.70;99434.00;;;;10501556;28;20569;-83
2023/04/01 09:54:49;;;;;;;3.37;2.70;;;;;10.70;99439.00;;;;10500545;28;20200;-81
2023/04/01 10:00:19;;;;;;;3.10;2.60;;;;;10.70;99435.00;;;;10509480;28;20461;-83
2023/04/01 10:05:37;;;;;;;4.20;2.90;;;;;11.10;99433.00;;;;10527403;28;20206;-82
2023/04/01 10:11:11;;;;;;;3.90;2.17;;;;;11.70;99442.00;;;;10523696;28;20223;-82
2023/04/01 10:16:40;;;;;;;2.90;2.60;;;;;12.00;99433.00;;;;10509266;28;20200;-82
2023/04/01 10:21:51;;;;;;;4.43;3.20;;;;;11.50;99448.00;;;;10497274;28;20542;-82
2023/04/01 10:27:03;;;;;;;3.60;2.70;;;;;11.80;99465.00;;;;10505708;28;20226;-81
2023/04/01 10:32:35;;;;;;;4.20;2.90;;;;;12.20;99465.00;;;;10553187;28;20263;-83
2023/04/01 10:37:46;;;;;;;3.33;2.30;;;;;12.20;99468.00;;;;10541836;28;20196;-81
2023/04/01 10:43:19;;;;;;;1.50;1.40;;;;;12.40;99468.00;;;;10515691;27;20719;-82
2023/04/01 10:49:06;;;;;;;3.77;1.80;;;;;12.20;99469.00;;;;10498057;28;20212;-82
2023/04/01 10:54:18;;;;;;;2.63;1.50;;;;;12.20;99472.00;;;;10497836;28;20511;-82
2023/04/01 11:00:19;;;;;;;1.70;1.60;;;;;12.30;99473.00;;;;10494977;28;20203;-82
2023/04/01 11:06:10;;;;;;;2.30;1.17;;;;;11.80;99489.00;;;;10540597;27;20240;-82
2023/04/01 11:11:43;;;;;;;0.90;0.70;;;;;11.50;99493.00;;;;10478794;28;20290;-83
2023/04/01 11:17:19;;;;;;;1.70;1.30;;;;;11.10;99503.00;;;;10534519;27;20292;-83
2023/04/01 11:22:51;;;;;;;2.00;1.13;;;;;11.80;99479.00;;;;10510811;28;20193;-84
2023/04/01 11:28:16;;;;;;;2.40;1.20;;;;;11.80;99512.00;;;;10524059;28;20221;-83
2023/04/01 11:33:36;;;;;;;2.93;0.80;;;;;11.40;99518.00;;;;10518199;28;20205;-83
2023/04/01 11:38:51;;;;;;;1.97;1.17;;;;;11.20;99529.00;;;;10510787;28;20200;-83
2023/04/01 11:44:19;;;;;;;1.27;1.07;;;;;11.60;99520.00;;;;10550533;27;20318;-83
2023/04/01 11:50:15;;;;;;;2.90;1.57;;;;;11.80;99527.00;;;;10542413;27;20228;-84
2023/04/01 11:55:28;;;;;;;1.23;1.10;;;;;12.00;99530.00;;;;10512328;27;20203;-83
2023/04/01 12:01:04;;;;;;;2.43;1.50;;;;;12.00;99544.00;;;;10524755;27;20201;-83
2023/04/01 12:06:25;;;;;;;1.13;1.00;;;;;12.10;99563.00;;;;10539875;28;20512;-81
2023/04/01 12:11:33;;;;;;;1.57;1.17;;;;;12.60;99549.00;;;;10506521;27;20234;-82
2023/04/01 12:16:50;;;;;;;1.13;1.00;;;;;12.10;99554.00;;;;10538757;28;20224;-82
2023/04/01 12:22:27;;;;;;;1.10;1.00;;;;;11.60;99577.00;;;;10513099;28;20249;-82
2023/04/01 12:27:53;;;;;;;1.10;1.00;;;;;11.80;99576.00;;;;10543589;28;20283;-82
2023/04/01 12:33:14;;;;;;;0.93;0.90;;;;;11.40;99593.00;;;;10464147;28;20226;-81
2023/04/01 12:38:54;;;;;;;1.10;1.00;;;;;11.10;99593.00;;;;10543169;27;20240;-81
2023/04/01 12:44:15;;;;;;;4.10;1.00;;;;;11.40;99595.00;;;;10534863;27;20212;-82
2023/04/01 12:49:33;;;;;;;0.97;0.80;;;;;11.50;99601.00;;;;10531239;28;20260;-83
2023/04/01 12:55:00;;;;;;;1.10;1.00;;;;;11.50;99606.00;;;;10507796;27;20203;-82
2023/04/01 13:00:17;;;;;;;2.67;1.00;;;;;11.70;99606.00;;;;10547776;28;20648;-83
2023/04/01 13:05:36;;;;;;;1.30;1.20;;;;;12.10;99617.00;;;;10543123;28;20203;-84
2023/04/01 13:10:38;;;;;;;1.73;1.17;;;;;12.20;99616.00;;;;10536533;27;20204;-83
2023/04/01 13:15:49;;;;;;;1.30;1.20;;;;;11.70;99633.00;;;;10494091;28;20208;-83
2023/04/01 13:21:13;;;;;;;1.40;1.10;;;;;11.50;99627.00;;;;10520100;27;20685;-81
2023/04/01 13:26:34;;;;;;;3.33;1.10;;;;;11.30;99645.00;;;;10528230;27;20663;-82
2023/04/01 13:32:09;;;;;;;0.93;0.93;;;;;11.90;99645.00;;;;10495803;28;20204;-81
2023/04/01 13:37:20;;;;;;;1.03;0.93;;;;;12.10;99641.00;;;;10481208;28;20200;-81
2023/04/01 13:42:39;;;;;;;1.17;0.90;;;;;12.20;99647.00;;;;10531322;28;20845;-81
2023/04/01 13:48:11;;;;;;;1.80;1.23;;;;;12.30;99649.00;;;;10520606;28;20222;-81
2023/04/01 13:53:47;;;;;;;1.00;0.90;;;;;12.00;99657.00;;;;10515539;28;20277;-82
2023/04/01 13:59:20;;;;;;;1.87;1.30;;;;;11.40;99676.00;;;;10507676;28;20702;-82
2023/04/01 14:04:34;;;;;;;2.27;1.37;;;;;11.00;99668.00;;;;10502172;28;20605;-81
2023/04/01 14:09:39;;;;;;;4.17;3.37;;;;;10.60;99679.00;;;;10530950;28;20220;-82
2023/04/01 14:15:00;;;;;;;2.57;2.33;;;;;10.50;99669.00;;;;10537136;27;20384;-81
2023/04/01 14:20:26;;;;;;;3.07;2.40;;;;;10.60;99683.00;;;;10536521;28;20206;-81
2023/04/01 14:25:47;;;;;;;3.63;2.87;;;;;11.00;99680.00;;;;10483410;28;20197;-81
2023/04/01 14:31:21;;;;;;;4.10;2.77;;;;;11.80;99681.00;;;;10520002;28;20280;-80
2023/04/01 14:36:29;;;;;;;2.80;2.53;;;;;12.60;99680.00;;;;10521621;27;20490;-80
2023/04/01 14:41:53;;;;;;;2.30;1.93;;;;;12.00;99687.00;;;;10500295;28;20220;-80
2023/04/01 14:47:11;;;;;;;4.63;1.93;;;;;11.80;99702.00;;;;10567088;27;20195;-79
2023/04/01 14:52:33;;;;;;;2.27;1.93;;;;;11.40;99718.00;;;;10526200;27;20211;-80
2023/04/01 14:57:36;;;;;;;2.33;1.20;;;;;10.90;99714.00;;;;10564961;27;20203;-79
2023/04/01 15:02:41;;;;;;;1.77;1.63;;;;;10.80;99716.00;;;;10534297;27;20428;-79
2023/04/01 15:07:52;;;;;;;3.10;1.30;;;;;11.50;99723.00;;;;10515897;28;20659;-80
2023/04/01 15:13:17;;;;;;;1.27;1.17;;;;;12.10;99722.00;;;;10533228;27;20199;-80
2023/04/01 15:18:33;;;;;;;1.87;1.50;;;;;11.70;99737.00;;;;10513109;28;20215;-80
2023/04/01 15:23:44;;;;;;;3.37;2.00;;;;;10.80;99744.00;;;;10481623;27;20211;-80
2023/04/01 15:29:39;;;;;;;2.10;1.63;;;;;10.60;99743.00;;;;10561954;27;20207;-80
2023/04/01 15:35:06;;;;;;;2.40;2.20;;;;;10.60;99744.00;;;;10485595;27;20200;-83
2023/04/01 15:40:41;;;;;;;4.47;2.53;;;;;10.40;99754.00;;;;10540939;27;20199;-83
2023/04/01 15:46:02;;;;;;;1.93;1.73;;;;;10.30;99755.00;;;;10538667;27;20193;-84
2023/04/01 15:51:35;;;;;;;3.00;1.73;;;;;9.90;99764.00;;;;10539154;28;20226;-83
2023/04/01 15:57:19;;;;;;;19.17;17.47;;;;;9.70;99774.00;;;;10548587;27;20242;-83
2023/04/01 16:02:35;;;;;;;2.63;1.67;;;;;9.60;99771.00;;;;10532238;28;20300;-83
2023/04/01 16:08:15;;;;;;;1.77;1.30;;;;;9.60;99779.00;;;;10571251;28;20192;-83
2023/04/01 16:13:48;;;;;;;2.43;1.30;;;;;9.60;99777.00;;;;10504225;27;20208;-83
2023/04/01 16:19:01;;;;;;;2.13;1.07;;;;;9.50;99785.00;;;;10525387;28;20208;-84
2023/04/01 16:24:19;;;;;;;1.83;1.03;;;;;9.40;99788.00;;;;10575018;27;20206;-83
2023/04/01 16:29:35;;;;;;;2.80;1.37;;;;;9.30;99804.00;;;;10586171;27;20211;-83
2023/04/01 16:34:45;;;;;;;2.07;1.53;;;;;9.20;99811.00;;;;10569322;27;20663;-83
2023/04/01 16:40:12;;;;;;;1.67;1.50;;;;;9.20;99806.00;;;;10515648;27;20223;-83
2023/04/01 16:45:21;;;;;;;2.87;1.90;;;;;9.00;99822.00;;;;10576947;27;20208;-83
2023/04/01 16:50:29;;;;;;;3.13;2.33;;;;;8.90;99806.00;;;;10554894;28;20212;-83
2023/04/01 16:55:54;;;;;;;3.60;2.83;;;;;8.90;99826.00;;;;10511656;28;20196;-82
2023/04/01 17:01:08;;;;;;;6.10;3.07;;;;;9.00;99834.00;;;;10530920;28;20261;-82
2023/04/01 17:06:29;;;;;;;3.30;1.77;;;;;8.90;99825.00;;;;10534142;28;20189;-82
2023/04/01 17:11:54;;;;;;;5.00;3.87;;;;;8.90;99846.00;;;;10542471;27;20208;-81
2023/04/01 17:17:12;;;;;;;4.57;3.40;;;;;8.90;99853.00;;;;10543337;27;20206;-82
2023/04/01 17:22:23;;;;;;;5.23;3.50;;;;;8.90;99861.00;;;;10527659;28;20209;-81
2023/04/01 17:27:55;;;;;;;3.87;2.77;;;;;8.90;99868.00;;;;10502725;28;20196;-81
2023/04/01 17:33:13;;;;;;;5.50;3.67;;;;;8.90;99862.00;;;;10495092;28;20267;-82
2023/04/01 17:38:39;;;;;;;5.13;3.93;;;;;8.80;99873.00;;;;10516769;28;20210;-82
2023/04/01 17:44:43;;;;;;;6.43;4.13;;;;;8.80;99881.00;;;;10548667;27;20372;-82
2023/04/01 17:49:50;;;;;;;4.70;3.97;;;;;8.80;99885.00;;;;10323472;28;20246;-81
2023/04/01 17:54:57;;;;;;;3.80;3.00;;;;;8.70;99894.00;;;;10478174;28;20201;-81
2023/04/01 18:00:26;;;;;;;5.23;3.43;;;;;8.60;99906.00;;;;10512674;28;20444;-82
2023/04/01 18:05:54;;;;;;;4.60;3.57;;;;;8.60;99914.00;;;;10506610;28;20188;-81
2023/04/01 18:11:08;;;;;;;4.20;3.90;;;;;8.50;99913.00;;;;10500647;28;20306;-82
2023/04/01 18:16:38;;;;;;;4.93;4.47;;;;;8.60;99920.00;;;;10530981;28;20196;-81
2023/04/01 18:21:48;;;;;;;6.30;5.43;;;;;8.60;99928.00;;;;10530926;28;20192;-82
2023/04/01 18:27:15;;;;;;;7.23;6.17;;;;;8.50;99928.00;;;;10478834;28;20235;-81
2023/04/01 18:32:36;;;;;;;10.23;8.17;;;;;8.50;99954.00;;;;10498743;28;20224;-81
2023/04/01 18:37:52;;;;;;;8.70;7.80;;;;;8.50;99954.00;;;;10529345;28;20211;-81
2023/04/01 18:43:37;;;;;;;12.30;8.67;;;;;8.50;99963.00;;;;10506096;28;20277;-81
2023/04/01 18:48:42;;;;;;;9.37;6.67;;;;;8.40;99970.00;;;;10555331;28;20211;-81
2023/04/01 18:53:55;;;;;;;8.37;6.10;;;;;8.40;99976.00;;;;10507468;28;20279;-81
2023/04/01 18:59:09;;;;;;;9.20;6.03;;;;;8.30;99984.00;;;;10521173;28;20830;-81
2023/04/01 19:04:14;;;;;;;8.47;6.43;;;;;8.30;99989.00;;;;10549678;27;20279;-81
2023/04/01 19:09:27;;;;;;;10.77;7.60;;;;;8.30;100001.00;;;;10477063;27;20215;-81
2023/04/01 19:14:47;;;;;;;12.37;8.50;;;;;8.30;100004.00;;;;10577816;27;20206;-80
2023/04/01 19:19:58;;;;;;;12.63;8.80;;;;;8.30;100012.00;;;;10536314;27;20196;-81
2023/04/01 19:25:19;;;;;;;11.63;8.33;;;;;8.30;100026.00;;;;10480593;28;20196;-81
2023/04/01 19:30:29;;;;;;;12.70;8.33;;;;;8.20;100030.00;;;;10535791;28;20231;-81
2023/04/01 19:35:55;;;;;;;14.27;9.27;;;;;8.20;100038.00;;;;10518045;27;20197;-81
2023/04/01 19:41:35;;;;;;;12.63;8.40;;;;;8.20;100042.00;;;;10553287;28;20192;-81
2023/04/01 19:46:44;;;;;;;15.50;8.23;;;;;8.20;100053.00;;;;10524849;27;20646;-81
2023/04/01 19:52:28;;;;;;;14.43;7.30;;;;;8.20;100064.00;;;;10479589;28;20575;-82
2023/04/01 19:57:53;;;;;;;11.40;7.33;;;;;8.20;100073.00;;;;10483154;28;20291;-81
2023/04/01 20:03:19;;;;;;;12.13;8.63;;;;;8.20;100078.00;;;;10569098;27;20203;-81
2023/04/01 20:08:33;;;;;;;14.17;8.20;;;;;8.20;100093.00;;;;10488790;28;20269;-81
2023/04/01 20:14:03;;;;;;;16.03;7.70;;;;;8.20;100087.00;;;;10532473;27;20298;-82
2023/04/01 20:19:09;;;;;;;14.17;8.43;;;;;8.20;100109.00;;;;10475544;28;20578;-82
2023/04/01 20:24:29;;;;;;;14.33;8.70;;;;;8.20;100108.00;;;;10536519;28;20275;-81
2023/04/01 20:29:55;;;;;;;15.70;9.63;;;;;8.30;100121.00;;;;10516744;28;20211;-81
2023/04/01 20:34:57;;;;;;;29.33;14.13;;;;;8.30;100129.00;;;;10552610;28;20278;-81
2023/04/01 20:40:20;;;;;;;21.80;11.27;;;;;8.30;100133.00;;;;10509712;28;20216;-81
2023/04/01 20:45:46;;;;;;;22.67;13.17;;;;;8.40;100142.00;;;;10533344;27;20224;-81
2023/04/01 20:51:04;;;;;;;21.13;14.43;;;;;8.40;100152.00;;;;10525675;28;20215;-81
2023/04/01 20:56:16;;;;;;;22.40;12.30;;;;;8.40;100160.00;;;;10544024;28;20218;-82
2023/04/01 21:01:31;;;;;;;20.43;12.17;;;;;8.40;100162.00;;;;10490412;28;20225;-82
2023/04/01 21:06:52;;;;;;;21.03;12.67;;;;;8.40;100174.00;;;;10548605;28;20193;-82
2023/04/01 21:12:18;;;;;;;27.87;15.60;;;;;8.50;100186.00;;;;10516874;28;20212;-81
2023/04/01 21:17:49;;;;;;;28.70;14.50;;;;;8.50;100197.00;;;;10513437;28;20196;-81
2023/04/01 21:23:00;;;;;;;23.87;15.10;;;;;8.50;100198.00;;;;10535939;28;20683;-82
2023/04/01 21:28:35;;;;;;;28.70;16.43;;;;;8.60;100206.00;;;;10497297;28;20272;-81
2023/04/01 21:34:06;;;;;;;29.73;16.00;;;;;8.60;100217.00;;;;10489898;28;20310;-82
2023/04/01 21:39:20;;;;;;;20.50;12.77;;;;;8.70;100227.00;;;;10507944;28;20207;-82
2023/04/01 21:45:13;;;;;;;19.37;13.13;;;;;8.80;100231.00;;;;10543864;27;20203;-82
2023/04/01 21:50:21;;;;;;;14.37;9.33;;;;;8.80;100245.00;;;;10474066;28;20265;-82
2023/04/01 21:55:50;;;;;;;12.17;8.07;;;;;8.80;100248.00;;;;10506010;28;20199;-81
2023/04/01 22:00:58;;;;;;;10.10;7.37;;;;;8.80;100260.00;;;;10514202;28;20237;-81
2023/04/01 22:06:07;;;;;;;11.60;8.03;;;;;8.80;100282.00;;;;10534891;28;20270;-81
2023/04/01 22:11:54;;;;;;;13.53;9.60;;;;;8.80;100302.00;;;;10489649;28;20225;-81
2023/04/01 22:17:03;;;;;;;17.87;12.70;;;;;8.70;100301.00;;;;10475112;28;20227;-80
2023/04/01 22:22:18;;;;;;;25.33;16.23;;;;;8.80;100309.00;;;;10525795;28;20205;-81
2023/04/01 22:27:30;;;;;;;21.53;15.10;;;;;8.70;100320.00;;;;10505202;28;20292;-81
2023/04/01 22:32:43;;;;;;;23.00;15.43;;;;;8.70;100317.00;;;;10506489;28;20218;-81
2023/04/01 22:38:23;;;;;;;21.80;15.37;;;;;8.70;100339.00;;;;10539025;27;20606;-81
2023/04/01 22:43:42;;;;;;;22.93;16.00;;;;;8.70;100343.00;;;;10541991;27;20227;-81
2023/04/01 22:49:16;;;;;;;17.97;13.30;;;;;8.70;100348.00;;;;10554454;27;20211;-81
2023/04/01 22:54:31;;;;;;;17.73;11.73;;;;;8.60;100360.00;;;;10514005;28;20207;-81
2023/04/01 23:00:08;;;;;;;17.63;12.70;;;;;8.60;100367.00;;;;10555631;27;20220;-81
2023/04/01 23:05:15;;;;;;;18.10;13.13;;;;;8.50;100374.00;;;;10532251;28;20734;-82
2023/04/01 23:10:27;;;;;;;19.63;14.80;;;;;8.50;100382.00;;;;10539700;27;20226;-81
2023/04/01 23:15:30;;;;;;;18.67;13.50;;;;;8.50;100391.00;;;;10563885;27;20204;-81
2023/04/01 23:20:55;;;;;;;19.80;13.73;;;;;8.50;100419.00;;;;10588743;27;20199;-82
2023/04/01 23:26:08;;;;;;;22.90;15.67;;;;;8.40;100403.00;;;;10552028;27;20196;-82
2023/04/01 23:31:32;;;;;;;21.97;14.83;;;;;8.40;100423.00;;;;10517874;28;20244;-82
2023/04/01 23:36:41;;;;;;;23.90;16.50;;;;;8.40;100426.00;;;;10546301;27;20606;-81
2023/04/01 23:41:44;;;;;;;25.40;16.53;;;;;8.40;100428.00;;;;10544565;28;20196;-81
2023/04/01 23:46:48;;;;;;;23.37;17.57;;;;;8.40;100445.00;;;;10552924;28;20200;-81
2023/04/01 23:52:08;;;;;;;26.27;17.67;;;;;8.30;100449.00;;;;10534204;28;20220;-81
2023/04/01 23:57:15;;;;;;;25.10;17.10;;;;;8.20;100454.00;;;;10460435;28;20296;-81
